createdAt,value
2023-04-23T00:00:14.562Z,99136.00
2023-04-23T00:02:48.106Z,99137.75
2023-04-23T00:05:17.625Z,99154.31
2023-04-23T00:07:46.867Z,99146.34
2023-04-23T00:10:15.557Z,99162.41
2023-04-23T00:12:44.758Z,99169.75
2023-04-23T00:15:14.688Z,99179.63
2023-04-23T00:17:43.143Z,99183.88
2023-04-23T00:20:11.680Z,99183.84
2023-04-23T00:22:40.176Z,99187.09
2023-04-23T00:25:09.041Z,99193.94
2023-04-23T00:27:37.549Z,99197.44
2023-04-23T00:30:06.861Z,99203.72
2023-04-23T00:32:35.385Z,99198.75
2023-04-23T00:35:03.824Z,99203.56
2023-04-23T00:37:32.378Z,99214.72
2023-04-23T00:40:00.814Z,99228.72
2023-04-23T00:42:30.363Z,99226.56
2023-04-23T00:44:58.966Z,99231.59
2023-04-23T00:47:27.843Z,99227.41
2023-04-23T00:49:57.525Z,99235.00
2023-04-23T00:52:25.942Z,99240.53
2023-04-23T00:54:54.320Z,99244.00
2023-04-23T00:57:24.211Z,99262.34
2023-04-23T00:59:53.085Z,99258.44
2023-04-23T01:02:21.973Z,99263.97
2023-04-23T01:04:55.936Z,99253.91
2023-04-23T01:07:24.940Z,99258.66
2023-04-23T01:09:53.704Z,99265.75
2023-04-23T01:12:22.406Z,99266.94
2023-04-23T01:14:50.976Z,99268.38
2023-04-23T01:17:19.436Z,99266.75
2023-04-23T01:19:47.890Z,99260.78
2023-04-23T01:22:18.044Z,99271.94
2023-04-23T01:24:47.261Z,99275.22
2023-04-23T01:27:15.735Z,99275.09
2023-04-23T01:29:44.519Z,99277.25
2023-04-23T01:32:13.051Z,99277.34
2023-04-23T01:34:42.710Z,99266.75
2023-04-23T01:37:12.411Z,99266.81
2023-04-23T01:39:40.885Z,99268.25
2023-04-23T01:42:09.440Z,99271.38
2023-04-23T01:44:38.269Z,99273.00
2023-04-23T01:47:07.318Z,99280.22
2023-04-23T01:49:35.991Z,99267.50
2023-04-23T01:52:05.000Z,99270.41
2023-04-23T01:54:33.433Z,99279.53
2023-04-23T01:57:02.017Z,99272.97
2023-04-23T01:59:30.429Z,99278.53
2023-04-23T02:01:58.864Z,99274.25
2023-04-23T02:04:28.516Z,99266.41
2023-04-23T02:06:57.175Z,99274.19
2023-04-23T02:09:25.599Z,99273.50
2023-04-23T02:11:53.982Z,99273.34
2023-04-23T02:14:22.658Z,99275.31
2023-04-23T02:16:51.048Z,99280.25
2023-04-23T02:19:19.459Z,99275.00
2023-04-23T02:21:47.838Z,99275.09
2023-04-23T02:24:16.264Z,99271.59
2023-04-23T02:26:44.671Z,99280.88
2023-04-23T02:29:13.055Z,99281.66
2023-04-23T02:31:41.527Z,99272.28
2023-04-23T02:34:10.321Z,99272.13
2023-04-23T02:36:39.275Z,99264.81
2023-04-23T02:39:08.034Z,99270.31
2023-04-23T02:41:36.451Z,99262.41
2023-04-23T02:44:04.872Z,99260.75
2023-04-23T02:46:33.349Z,99253.41
2023-04-23T02:49:01.877Z,99256.84
2023-04-23T02:51:30.397Z,99253.88
2023-04-23T02:53:59.149Z,99258.41
2023-04-23T02:56:27.530Z,99263.13
2023-04-23T02:58:55.922Z,99259.56
2023-04-23T03:01:24.645Z,99256.41
2023-04-23T03:03:53.382Z,99244.13
2023-04-23T03:06:22.153Z,99245.28
2023-04-23T03:08:50.544Z,99249.44
2023-04-23T03:11:18.970Z,99245.16
2023-04-23T03:13:47.381Z,99235.94
2023-04-23T03:16:16.508Z,99233.66
2023-04-23T03:18:45.236Z,99225.72
2023-04-23T03:21:13.934Z,99226.88
2023-04-23T03:23:42.388Z,99234.66
2023-04-23T03:26:10.785Z,99232.00
2023-04-23T03:28:39.239Z,99227.66
2023-04-23T03:31:07.891Z,99229.00
2023-04-23T03:33:36.629Z,99231.09
2023-04-23T03:36:05.275Z,99219.16
2023-04-23T03:38:33.691Z,99216.31
2023-04-23T03:41:02.080Z,99212.72
2023-04-23T03:43:30.924Z,99210.06
2023-04-23T03:45:59.522Z,99211.38
2023-04-23T03:48:28.001Z,99197.75
2023-04-23T03:50:56.595Z,99206.25
2023-04-23T03:53:25.020Z,99203.22
2023-04-23T03:55:53.432Z,99197.31
2023-04-23T03:58:21.807Z,99190.28
2023-04-23T04:00:50.247Z,99188.19
2023-04-23T04:03:18.822Z,99188.16
2023-04-23T04:05:47.497Z,99188.13
2023-04-23T04:08:17.123Z,99187.53
2023-04-23T04:10:45.601Z,99179.72
2023-04-23T04:13:14.110Z,99181.75
2023-04-23T04:15:42.508Z,99174.69
2023-04-23T04:18:10.948Z,99172.56
2023-04-23T04:20:39.520Z,99177.44
2023-04-23T04:23:07.985Z,99166.78
2023-04-23T04:25:40.875Z,99159.50
2023-04-23T04:28:10.343Z,99147.19
2023-04-23T04:30:39.331Z,99151.28
2023-04-23T04:33:07.776Z,99139.84
2023-04-23T04:35:36.537Z,99140.34
2023-04-23T04:38:04.956Z,99135.19
2023-04-23T04:40:34.790Z,99137.22
2023-04-23T04:43:03.203Z,99139.81
2023-04-23T04:45:31.573Z,99128.94
2023-04-23T04:47:59.936Z,99133.97
2023-04-23T04:50:28.338Z,99124.75
2023-04-23T04:52:56.843Z,99118.97
2023-04-23T04:55:25.248Z,99126.25
2023-04-23T04:57:53.773Z,99117.06
2023-04-23T05:00:30.633Z,99110.94
2023-04-23T05:03:00.340Z,99107.97
2023-04-23T05:05:29.354Z,99100.53
2023-04-23T05:08:00.276Z,99100.28
2023-04-23T05:10:28.820Z,99092.19
2023-04-23T05:13:01.658Z,99087.13
2023-04-23T05:15:30.299Z,99087.06
2023-04-23T05:17:58.828Z,99083.19
2023-04-23T05:20:28.175Z,99073.78
2023-04-23T05:22:56.582Z,99072.88
2023-04-23T05:25:25.019Z,99065.25
2023-04-23T05:27:53.469Z,99065.25
2023-04-23T05:30:21.975Z,99058.94
2023-04-23T05:32:50.812Z,99051.34
2023-04-23T05:35:19.319Z,99048.78
2023-04-23T05:37:50.521Z,99048.50
2023-04-23T05:40:19.042Z,99043.25
2023-04-23T05:42:47.398Z,99038.03
2023-04-23T05:45:15.908Z,99029.38
2023-04-23T05:47:44.306Z,99031.78
2023-04-23T05:50:12.923Z,99024.28
2023-04-23T05:52:41.663Z,99028.47
2023-04-23T05:55:10.745Z,99021.72
2023-04-23T05:57:40.150Z,99017.09
2023-04-23T06:00:12.755Z,99013.94
2023-04-23T06:02:42.342Z,98989.44
2023-04-23T06:05:12.099Z,98987.06
2023-04-23T06:07:41.367Z,98985.41
2023-04-23T06:10:10.447Z,98968.59
2023-04-23T06:12:40.246Z,98961.81
2023-04-23T06:15:09.844Z,98953.69
2023-04-23T06:17:38.859Z,98944.66
2023-04-23T06:20:08.621Z,98935.50
2023-04-23T06:22:37.131Z,98924.97
2023-04-23T06:25:06.481Z,98917.44
2023-04-23T06:27:35.043Z,98922.09
2023-04-23T06:30:05.129Z,98915.19
2023-04-23T06:32:33.527Z,98906.91
2023-04-23T06:35:02.438Z,98901.63
2023-04-23T06:37:34.488Z,98907.63
2023-04-23T06:40:02.935Z,98900.53
2023-04-23T06:42:31.758Z,98901.00
2023-04-23T06:45:06.350Z,98888.22
2023-04-23T06:47:35.079Z,98898.41
2023-04-23T06:50:03.502Z,98889.22
2023-04-23T06:52:32.051Z,98882.63
2023-04-23T06:55:00.437Z,98869.09
2023-04-23T06:57:29.975Z,98875.69
2023-04-23T06:59:58.366Z,98874.47
2023-04-23T07:02:27.282Z,98865.28
2023-04-23T07:04:55.879Z,98860.00
2023-04-23T07:07:24.350Z,98851.69
2023-04-23T07:09:52.788Z,98854.81
2023-04-23T07:12:21.351Z,98841.13
2023-04-23T07:14:49.726Z,98845.50
2023-04-23T07:17:18.104Z,98847.59
2023-04-23T07:19:46.557Z,98836.34
2023-04-23T07:22:15.401Z,98834.06
2023-04-23T07:24:43.999Z,98832.16
2023-04-23T07:27:12.654Z,98823.84
2023-04-23T07:29:41.052Z,98819.00
2023-04-23T07:32:09.567Z,98803.34
2023-04-23T07:34:38.597Z,98796.91
2023-04-23T07:37:07.260Z,98792.53
2023-04-23T07:39:35.863Z,98788.19
2023-04-23T07:42:04.528Z,98773.28
2023-04-23T07:44:32.819Z,98769.06
2023-04-23T07:47:01.566Z,98760.22
2023-04-23T07:49:29.832Z,98764.59
2023-04-23T07:51:58.208Z,98754.53
2023-04-23T07:54:27.464Z,98748.81
2023-04-23T07:56:55.730Z,98744.44
2023-04-23T07:59:24.116Z,98742.06
2023-04-23T08:01:53.560Z,98729.88
2023-04-23T08:04:22.124Z,98731.09
2023-04-23T08:06:50.564Z,98723.75
2023-04-23T08:09:18.939Z,98731.56
2023-04-23T08:11:47.241Z,98732.06
2023-04-23T08:14:16.014Z,98716.50
2023-04-23T08:16:44.943Z,98717.91
2023-04-23T08:19:13.283Z,98710.19
2023-04-23T08:21:41.850Z,98706.19
2023-04-23T08:24:10.145Z,98698.06
2023-04-23T08:26:38.474Z,98697.06
2023-04-23T08:29:08.253Z,98696.75
2023-04-23T08:31:38.321Z,98687.91
2023-04-23T08:34:06.756Z,98678.34
2023-04-23T08:36:35.153Z,98677.47
2023-04-23T08:39:05.017Z,98680.94
2023-04-23T08:41:41.734Z,98672.09
2023-04-23T08:44:23.945Z,98674.38
2023-04-23T08:46:54.160Z,98666.34
2023-04-23T08:49:22.602Z,98659.63
2023-04-23T08:51:55.378Z,98661.53
2023-04-23T08:54:30.603Z,98655.44
2023-04-23T08:57:00.156Z,98663.72
2023-04-23T08:59:31.398Z,98661.34
2023-04-23T09:02:02.020Z,98664.84
2023-04-23T09:04:32.532Z,98671.16
2023-04-23T09:07:01.293Z,98656.16
2023-04-23T09:09:31.427Z,98659.75
2023-04-23T09:12:00.164Z,98647.78
2023-04-23T09:14:28.560Z,98645.69
2023-04-23T09:16:57.184Z,98646.44
2023-04-23T09:19:38.199Z,98645.06
2023-04-23T09:22:07.046Z,98649.84
2023-04-23T09:24:36.246Z,98644.91
2023-04-23T09:27:05.012Z,98647.31
2023-04-23T09:29:33.411Z,98630.19
2023-04-23T09:32:11.048Z,98622.72
2023-04-23T09:34:39.519Z,98619.97
2023-04-23T09:37:12.790Z,98610.25
2023-04-23T09:39:41.549Z,98599.88
2023-04-23T09:42:12.230Z,98588.97
2023-04-23T09:44:40.630Z,98578.78
2023-04-23T09:47:10.781Z,98582.97
2023-04-23T09:49:50.171Z,98582.06
2023-04-23T09:52:19.486Z,98578.31
2023-04-23T09:54:48.026Z,98573.25
2023-04-23T09:57:17.191Z,98565.63
2023-04-23T09:59:48.441Z,98566.38
2023-04-23T10:02:20.819Z,98573.09
2023-04-23T10:05:03.418Z,98575.50
2023-04-23T10:07:39.728Z,98577.28
2023-04-23T10:10:08.958Z,98584.81
2023-04-23T10:12:53.517Z,98578.06
2023-04-23T10:15:24.391Z,98569.13
2023-04-23T10:17:53.560Z,98579.31
2023-04-23T10:20:25.763Z,98584.38
2023-04-23T10:22:57.396Z,98578.09
2023-04-23T10:25:27.157Z,98585.28
2023-04-23T10:27:59.697Z,98596.81
2023-04-23T10:30:29.083Z,98594.72
2023-04-23T10:33:01.205Z,98599.66
2023-04-23T10:35:30.132Z,98605.19
2023-04-23T10:37:58.633Z,98603.56
2023-04-23T10:40:33.518Z,98610.28
2023-04-23T10:43:02.475Z,98614.44
2023-04-23T10:45:33.554Z,98619.09
2023-04-23T10:48:02.042Z,98637.94
2023-04-23T10:50:32.536Z,98648.06
2023-04-23T10:53:00.963Z,98652.25
2023-04-23T10:55:33.358Z,98653.72
2023-04-23T10:58:06.209Z,98652.91
2023-04-23T11:00:44.291Z,98663.47
2023-04-23T11:03:44.576Z,98677.06
2023-04-23T11:06:41.023Z,98685.06
2023-04-23T11:09:31.718Z,98683.09
2023-04-23T11:12:04.795Z,98674.69
2023-04-23T11:14:39.682Z,98677.44
2023-04-23T11:17:08.075Z,98687.56
2023-04-23T11:19:42.220Z,98700.50
2023-04-23T11:22:22.585Z,98711.97
2023-04-23T11:24:51.225Z,98712.03
2023-04-23T11:27:20.855Z,98710.78
2023-04-23T11:29:49.367Z,98711.63
2023-04-23T11:32:18.737Z,98722.47
2023-04-23T11:34:51.485Z,98712.84
2023-04-23T11:37:20.664Z,98725.78
2023-04-23T11:39:50.244Z,98731.69
2023-04-23T11:42:21.105Z,98731.19
2023-04-23T11:44:49.935Z,98729.34
2023-04-23T11:47:19.703Z,98728.06
2023-04-23T11:49:49.832Z,98731.31
2023-04-23T11:52:18.235Z,98721.88
2023-04-23T11:54:46.612Z,98722.88
2023-04-23T11:57:15.568Z,98716.69
2023-04-23T11:59:44.460Z,98719.78
2023-04-23T12:02:13.304Z,98710.72
2023-04-23T12:04:41.967Z,98706.78
2023-04-23T12:07:23.027Z,98703.75
2023-04-23T12:09:54.034Z,98716.44
2023-04-23T12:12:22.468Z,98722.09
2023-04-23T12:14:50.848Z,98722.50
2023-04-23T12:17:19.243Z,98732.19
2023-04-23T12:19:47.623Z,98739.00
2023-04-23T12:22:16.163Z,98749.41
2023-04-23T12:24:55.851Z,98757.75
2023-04-23T12:27:24.332Z,98753.94
2023-04-23T12:30:02.965Z,98757.38
2023-04-23T12:32:35.443Z,98813.28
2023-04-23T12:35:07.080Z,98813.88
2023-04-23T12:37:38.807Z,98835.03
2023-04-23T12:40:08.189Z,98849.41
2023-04-23T12:42:37.243Z,98866.28
2023-04-23T12:45:11.022Z,98872.72
2023-04-23T12:47:39.508Z,98889.72
2023-04-23T12:50:08.851Z,98908.06
2023-04-23T12:52:37.434Z,98921.47
2023-04-23T12:55:06.038Z,98941.31
2023-04-23T12:57:35.156Z,98945.84
2023-04-23T13:00:03.570Z,98965.06
2023-04-23T13:02:33.028Z,98985.97
2023-04-23T13:05:01.837Z,98988.41
2023-04-23T13:07:30.319Z,98988.94
2023-04-23T13:10:00.353Z,99008.25
2023-04-23T13:12:28.834Z,99009.13
2023-04-23T13:14:58.160Z,99009.03
2023-04-23T13:17:27.362Z,99020.13
2023-04-23T13:19:56.744Z,99010.34
2023-04-23T13:22:29.356Z,99012.63
2023-04-23T13:25:00.728Z,99003.47
2023-04-23T13:27:31.096Z,99007.38
2023-04-23T13:29:59.795Z,99021.28
2023-04-23T13:32:32.882Z,99057.09
2023-04-23T13:35:03.758Z,99070.63
2023-04-23T13:37:33.180Z,99006.56
2023-04-23T13:40:01.634Z,98986.25
2023-04-23T13:42:30.046Z,98982.63
2023-04-23T13:44:58.520Z,98974.66
2023-04-23T13:47:28.268Z,98985.38
2023-04-23T13:49:57.415Z,98996.50
2023-04-23T13:52:25.831Z,99007.78
2023-04-23T13:54:55.583Z,99004.28
2023-04-23T13:57:24.803Z,99003.03
2023-04-23T13:59:53.190Z,99007.16
2023-04-23T14:02:21.664Z,99005.91
2023-04-23T14:04:50.777Z,99008.53
2023-04-23T14:07:19.236Z,99011.66
2023-04-23T14:09:48.348Z,99021.38
2023-04-23T14:12:16.858Z,99029.78
2023-04-23T14:14:45.265Z,99051.72
2023-04-23T14:17:13.688Z,99057.06
2023-04-23T14:19:42.247Z,99053.50
2023-04-23T14:22:10.769Z,99042.31
2023-04-23T14:24:47.960Z,99049.19
2023-04-23T14:27:16.490Z,99050.47
2023-04-23T14:29:57.878Z,99061.94
2023-04-23T14:32:26.302Z,99075.69
2023-04-23T14:34:54.856Z,99086.66
2023-04-23T14:37:23.656Z,99118.22
2023-04-23T14:39:52.065Z,99141.63
2023-04-23T14:42:20.464Z,99173.47
2023-04-23T14:44:48.875Z,99178.28
2023-04-23T14:47:17.585Z,99195.63
2023-04-23T14:49:46.600Z,99219.06
2023-04-23T14:52:14.977Z,99230.28
2023-04-23T14:54:43.445Z,99247.31
2023-04-23T14:57:11.953Z,99263.59
2023-04-23T14:59:40.610Z,99278.09
2023-04-23T15:02:10.178Z,99264.84
2023-04-23T15:04:38.688Z,99262.81
2023-04-23T15:07:07.269Z,99264.09
2023-04-23T15:09:35.685Z,99263.56
2023-04-23T15:12:08.213Z,99283.94
2023-04-23T15:14:39.393Z,99302.56
2023-04-23T15:17:07.835Z,99317.31
2023-04-23T15:19:36.288Z,99317.31
2023-04-23T15:22:04.751Z,99352.44
2023-04-23T15:24:33.119Z,99376.88
2023-04-23T15:27:03.022Z,99390.38
2023-04-23T15:29:31.602Z,99401.59
2023-04-23T15:32:00.618Z,99418.38
2023-04-23T15:34:29.011Z,99428.31
2023-04-23T15:36:57.467Z,99425.00
2023-04-23T15:39:25.860Z,99418.13
2023-04-23T15:41:54.780Z,99422.75
2023-04-23T15:44:23.447Z,99412.31
2023-04-23T15:46:51.859Z,99412.31
2023-04-23T15:49:20.303Z,99419.44
2023-04-23T15:51:49.396Z,99430.63
2023-04-23T15:54:17.852Z,99424.28
2023-04-23T15:56:46.239Z,99425.53
2023-04-23T15:59:14.684Z,99416.38
2023-04-23T16:01:43.277Z,99410.00
2023-04-23T16:04:12.416Z,99393.69
2023-04-23T16:06:41.334Z,99389.09
2023-04-23T16:09:09.778Z,99395.97
2023-04-23T16:11:39.274Z,99415.31
2023-04-23T16:14:10.301Z,99412.28
2023-04-23T16:16:39.749Z,99420.38
2023-04-23T16:19:08.239Z,99433.34
2023-04-23T16:21:36.886Z,99427.00
2023-04-23T16:24:05.636Z,99443.78
2023-04-23T16:26:34.340Z,99448.13
2023-04-23T16:29:16.460Z,99442.28
2023-04-23T16:31:49.587Z,99449.41
2023-04-23T16:34:18.186Z,99428.53
2023-04-23T16:36:46.674Z,99432.84
2023-04-23T16:39:15.560Z,99444.81
2023-04-23T16:41:43.942Z,99446.34
2023-04-23T16:44:12.416Z,99461.63
2023-04-23T16:49:09.360Z,99459.38
2023-04-23T16:51:37.755Z,99432.38
2023-04-23T16:54:06.275Z,99424.25
2023-04-23T16:56:35.145Z,99419.66
2023-04-23T16:59:04.130Z,99422.75
2023-04-23T17:01:32.611Z,99413.59
2023-04-23T17:04:01.306Z,99414.34
2023-04-23T17:06:31.680Z,99422.75
2023-04-23T17:09:03.317Z,99421.97
2023-04-23T17:11:32.600Z,99438.03
2023-04-23T17:14:01.092Z,99438.03
2023-04-23T17:16:29.969Z,99438.78
2023-04-23T17:18:58.681Z,99435.69
2023-04-23T17:21:28.232Z,99448.47
2023-04-23T17:23:57.774Z,99468.81
2023-04-23T17:26:26.211Z,99468.06
2023-04-23T17:28:54.655Z,99470.56
2023-04-23T17:31:23.196Z,99475.19
2023-04-23T17:33:51.668Z,99477.22
2023-04-23T17:36:20.206Z,99478.75
2023-04-23T17:38:48.639Z,99466.28
2023-04-23T17:41:20.027Z,99462.47
2023-04-23T17:43:50.858Z,99449.22
2023-04-23T17:46:19.564Z,99443.88
2023-04-23T17:48:49.177Z,99431.91
2023-04-23T17:51:17.641Z,99440.31
2023-04-23T17:53:49.491Z,99445.66
2023-04-23T17:56:18.051Z,99454.31
2023-04-23T17:58:46.855Z,99457.88
2023-04-23T18:01:16.443Z,99461.47
2023-04-23T18:03:45.240Z,99468.59
2023-04-23T18:06:13.860Z,99484.13
2023-04-23T18:08:42.735Z,99497.88
2023-04-23T18:11:11.465Z,99500.19
2023-04-23T18:13:40.127Z,99490.00
2023-04-23T18:16:08.540Z,99479.56
2023-04-23T18:18:37.050Z,99445.94
2023-04-23T18:21:06.126Z,99432.69
2023-04-23T18:23:36.801Z,99436.75
2023-04-23T18:26:05.276Z,99444.91
2023-04-23T18:28:38.087Z,99453.56
2023-04-23T18:31:06.686Z,99451.78
2023-04-23T18:33:53.444Z,99451.53
2023-04-23T18:36:35.213Z,99453.31
2023-04-23T18:39:04.707Z,99444.66
2023-04-23T18:41:33.375Z,99439.56
2023-04-23T18:44:03.452Z,99447.66
2023-04-23T18:46:32.805Z,99427.81
2023-04-23T18:49:10.223Z,99417.13
2023-04-23T18:51:46.774Z,99415.31
2023-04-23T18:54:15.970Z,99420.38
2023-04-23T18:56:44.681Z,99436.66
2023-04-23T18:59:13.453Z,99443.28
2023-04-23T19:01:43.270Z,99442.25
2023-04-23T19:04:12.314Z,99433.59
2023-04-23T19:06:41.068Z,99432.06
2023-04-23T19:09:10.285Z,99427.75
2023-04-23T19:11:39.222Z,99433.09
2023-04-23T19:14:07.684Z,99421.88
2023-04-23T19:16:36.400Z,99415.22
2023-04-23T19:19:04.902Z,99413.69
2023-04-23T19:21:33.359Z,99399.44
2023-04-23T19:24:01.841Z,99395.88
2023-04-23T19:26:30.301Z,99390.78
2023-04-23T19:28:58.704Z,99384.94
2023-04-23T19:31:28.259Z,99400.19
2023-04-23T19:33:58.233Z,99394.59
2023-04-23T19:36:27.512Z,99403.00
2023-04-23T19:38:55.962Z,99401.47
2023-04-23T19:41:24.340Z,99398.16
2023-04-23T19:43:52.751Z,99408.59
2023-04-23T19:46:21.279Z,99410.63
2023-04-23T19:48:49.706Z,99424.63
2023-04-23T19:51:20.314Z,99431.50
2023-04-23T19:53:49.415Z,99436.84
2023-04-23T19:56:18.924Z,99434.78
2023-04-23T19:58:47.446Z,99454.38
2023-04-23T20:01:15.897Z,99462.28
2023-04-23T20:03:44.791Z,99472.22
2023-04-23T20:06:13.321Z,99472.97
2023-04-23T20:09:04.335Z,99470.19
2023-04-23T20:11:32.877Z,99468.13
2023-04-23T20:14:01.481Z,99480.09
2023-04-23T20:16:29.968Z,99476.81
2023-04-23T20:18:58.661Z,99482.91
2023-04-23T20:21:27.756Z,99482.91
2023-04-23T20:23:56.245Z,99504.78
2023-04-23T20:26:24.889Z,99511.16
2023-04-23T20:28:53.273Z,99520.31
2023-04-23T20:31:22.342Z,99511.91
2023-04-23T20:33:50.797Z,99510.66
2023-04-23T20:36:19.467Z,99524.16
2023-04-23T20:38:48.400Z,99544.25
2023-04-23T20:41:17.051Z,99556.47
2023-04-23T20:43:45.508Z,99571.72
2023-04-23T20:46:14.247Z,99591.81
2023-04-23T20:48:44.369Z,99579.59
2023-04-23T20:51:12.968Z,99580.34
2023-04-23T20:53:41.371Z,99564.03
2023-04-23T20:56:09.763Z,99552.06
2023-04-23T20:58:38.252Z,99543.13
2023-04-23T21:01:08.533Z,99540.06
2023-04-23T21:03:37.985Z,99533.41
2023-04-23T21:06:08.476Z,99530.63
2023-04-23T21:08:43.498Z,99527.31
2023-04-23T21:11:15.534Z,99523.75
2023-04-23T21:13:44.624Z,99516.13
2023-04-23T21:16:13.264Z,99518.44
2023-04-23T21:18:42.607Z,99526.09
2023-04-23T21:21:11.237Z,99528.13
2023-04-23T21:23:39.628Z,99518.16
2023-04-23T21:26:10.038Z,99524.25
2023-04-23T21:28:38.425Z,99527.56
2023-04-23T21:31:13.733Z,99532.38
2023-04-23T21:33:42.221Z,99527.28
2023-04-23T21:36:10.588Z,99517.88
2023-04-23T21:38:38.966Z,99524.72
2023-04-23T21:41:08.553Z,99533.63
2023-04-23T21:43:37.026Z,99535.66
2023-04-23T21:46:05.586Z,99524.47
2023-04-23T21:48:34.544Z,99512.50
2023-04-23T21:51:04.486Z,99499.03
2023-04-23T21:53:32.868Z,99495.19
2023-04-23T21:56:01.460Z,99492.13
2023-04-23T21:58:32.211Z,99491.09
2023-04-23T22:01:00.678Z,99484.75
2023-04-23T22:03:38.250Z,99484.47
2023-04-23T22:06:07.943Z,99481.41
2023-04-23T22:08:38.903Z,99488.72
2023-04-23T22:11:09.196Z,99498.09
2023-04-23T22:13:38.059Z,99498.59
2023-04-23T22:16:16.447Z,99512.81
2023-04-23T22:18:53.304Z,99504.66
2023-04-23T22:21:21.811Z,99507.19
2023-04-23T22:23:50.372Z,99522.44
2023-04-23T22:26:18.890Z,99530.28
2023-04-23T22:28:47.637Z,99543.50
2023-04-23T22:31:16.838Z,99551.13
2023-04-23T22:33:45.276Z,99559.53
2023-04-23T22:36:13.816Z,99561.06
2023-04-23T22:38:42.323Z,99565.38
2023-04-23T22:41:10.747Z,99564.13
2023-04-23T22:43:39.134Z,99555.22
2023-04-23T22:46:07.571Z,99551.94
2023-04-23T22:48:38.771Z,99545.09
2023-04-23T22:51:07.911Z,99533.41
2023-04-23T22:53:36.304Z,99538.50
2023-04-23T22:56:04.824Z,99552.47
2023-04-23T22:58:33.352Z,99556.03
2023-04-23T23:01:01.765Z,99541.06
2023-04-23T23:03:30.249Z,99538.53
2023-04-23T23:05:58.706Z,99530.41
2023-04-23T23:08:27.115Z,99525.56
2023-04-23T23:10:55.523Z,99529.91
2023-04-23T23:13:24.204Z,99527.88
2023-04-23T23:15:53.170Z,99526.66
2023-04-23T23:18:22.159Z,99526.16
2023-04-23T23:20:50.606Z,99523.63
2023-04-23T23:23:18.990Z,99519.56
2023-04-23T23:25:47.385Z,99515.50
2023-04-23T23:28:16.508Z,99512.97
2023-04-23T23:30:44.903Z,99519.59
2023-04-23T23:33:13.496Z,99521.41
2023-04-23T23:35:43.645Z,99526.75
2023-04-23T23:38:12.926Z,99526.25
2023-04-23T23:40:41.535Z,99526.53
2023-04-23T23:43:09.973Z,99521.19
2023-04-23T23:45:38.384Z,99523.00
2023-04-23T23:48:07.305Z,99528.13
2023-04-23T23:50:35.910Z,99538.81
2023-04-23T23:53:04.405Z,99526.84
2023-04-23T23:55:32.808Z,99536.00
2023-04-23T23:58:01.988Z,99537.03
